Horam, United Kingdom
Current Conditions -  °F | °C
As of 8:50 PM on Tuesday 21 Oct 2014 (Local Time) from EGKK Reporting Station
Few Clouds Few Clouds  
Wind Chill: 50°   Ceiling: Unl
Heat Index: 50°   Visibility: 6mi
Dew Point: 37°   Wind: 21mph
Humidity: 62%   Direction: 300°WNW
Pressure: 30.03"   Gusts: NA
Location:  50.94°N, 0.24°E
Report Text: EGKK 211950Z 30018KT 9999 FEW045 10/03 Q1017
Loading
Personal Weather Stations






























Interactive Weather Map
Tropical Storm Tracking
New forecast layout! Learn more

10-Day Weather Forecast

Advertisements
Track Severe Weather on mobile